createdAt,value
2023-01-06T00:02:20.141Z,0.30
2023-01-06T00:05:21.753Z,0.20
2023-01-06T00:08:23.311Z,0.20
2023-01-06T00:11:25.605Z,0.30
2023-01-06T00:14:27.134Z,0.30
2023-01-06T00:17:28.734Z,0.32
2023-01-06T00:20:30.377Z,0.30
2023-01-06T00:23:32.906Z,0.40
2023-01-06T00:26:34.476Z,0.20
2023-01-06T00:29:36.165Z,0.30
2023-01-06T00:32:37.743Z,0.30
2023-01-06T00:35:39.298Z,0.30
2023-01-06T00:38:41.309Z,0.20
2023-01-06T00:42:01.493Z,0.20
2023-01-06T00:45:03.375Z,0.30
2023-01-06T00:48:05.274Z,0.25
2023-01-06T00:51:06.838Z,0.30
2023-01-06T00:54:11.721Z,0.30
2023-01-06T00:57:13.302Z,0.30
2023-01-06T01:00:15.005Z,0.20
2023-01-06T01:03:16.606Z,0.38
2023-01-06T01:06:18.490Z,0.30
2023-01-06T01:09:24.109Z,0.30
2023-01-06T01:12:25.797Z,0.38
2023-01-06T01:15:27.762Z,0.43
2023-01-06T01:18:29.341Z,0.50
2023-01-06T01:21:30.985Z,0.30
2023-01-06T01:24:32.624Z,0.45
2023-01-06T01:27:34.336Z,0.30
2023-01-06T01:30:35.868Z,0.30
2023-01-06T01:33:38.280Z,0.40
2023-01-06T01:36:41.729Z,0.35
2023-01-06T01:39:43.459Z,0.52
2023-01-06T01:42:45.026Z,0.30
2023-01-06T01:45:50.948Z,0.43
2023-01-06T01:48:55.460Z,0.50
2023-01-06T01:51:57.923Z,0.40
2023-01-06T01:55:00.018Z,0.40
2023-01-06T01:58:10.609Z,0.40
2023-01-06T02:01:12.975Z,0.40
2023-01-06T02:04:17.405Z,0.30
2023-01-06T02:07:19.799Z,0.30
2023-01-06T02:10:23.165Z,0.30
2023-01-06T02:13:24.815Z,0.40
2023-01-06T02:16:31.998Z,0.25
2023-01-06T02:19:54.782Z,0.30
2023-01-06T02:23:27.098Z,0.40
2023-01-06T02:27:03.148Z,0.68
2023-01-06T02:30:16.667Z,0.40
2023-01-06T02:33:35.202Z,0.40
2023-01-06T02:36:49.128Z,0.30
2023-01-06T02:40:11.876Z,0.30
2023-01-06T02:43:47.011Z,0.40
2023-01-06T02:47:22.298Z,0.30
2023-01-06T02:50:24.365Z,0.40
2023-01-06T02:53:46.210Z,0.60
2023-01-06T02:56:52.451Z,0.43
2023-01-06T03:00:04.460Z,0.30
2023-01-06T03:03:11.136Z,0.60
2023-01-06T03:06:18.051Z,0.38
2023-01-06T03:09:23.081Z,0.30
2023-01-06T03:13:06.721Z,0.40
2023-01-06T03:16:09.219Z,0.32
2023-01-06T03:19:10.887Z,0.38
2023-01-06T03:22:13.147Z,0.30
2023-01-06T03:25:15.361Z,0.35
2023-01-06T03:28:17.286Z,0.30
2023-01-06T03:31:45.225Z,0.40
2023-01-06T03:35:31.596Z,0.50
2023-01-06T03:38:42.511Z,0.50
2023-01-06T03:42:16.671Z,0.32
2023-01-06T03:45:33.260Z,0.30
2023-01-06T03:48:53.669Z,0.30
2023-01-06T03:52:04.609Z,0.30
2023-01-06T03:55:11.690Z,0.40
2023-01-06T03:58:15.023Z,0.50
2023-01-06T04:01:17.227Z,0.30
2023-01-06T04:04:19.779Z,0.30
2023-01-06T04:07:21.600Z,0.30
2023-01-06T04:10:23.743Z,0.25
2023-01-06T04:13:25.302Z,0.30
2023-01-06T04:16:27.093Z,0.32
2023-01-06T04:19:28.776Z,0.28
2023-01-06T04:22:30.443Z,0.32
2023-01-06T04:25:32.006Z,0.30
2023-01-06T04:28:33.753Z,0.28
2023-01-06T04:31:35.870Z,0.30
2023-01-06T04:34:37.513Z,0.63
2023-01-06T04:37:39.154Z,0.30
2023-01-06T04:40:43.241Z,0.20
2023-01-06T04:43:44.788Z,0.30
2023-01-06T04:46:46.473Z,0.30
2023-01-06T04:49:48.038Z,0.30
2023-01-06T04:52:49.828Z,0.30
2023-01-06T04:55:51.939Z,0.30
2023-01-06T04:58:58.355Z,0.30
2023-01-06T05:01:59.991Z,0.40
2023-01-06T05:05:01.561Z,0.38
2023-01-06T05:08:03.141Z,0.50
2023-01-06T05:11:10.355Z,0.40
2023-01-06T05:14:12.167Z,0.40
2023-01-06T05:17:13.826Z,0.30
2023-01-06T05:20:15.766Z,0.35
2023-01-06T05:23:17.655Z,0.30
2023-01-06T05:26:22.485Z,0.30
2023-01-06T05:29:24.034Z,0.40
2023-01-06T05:32:25.800Z,0.30
2023-01-06T05:35:28.448Z,0.60
2023-01-06T05:38:30.119Z,0.43
2023-01-06T05:41:31.685Z,0.20
2023-01-06T05:44:33.253Z,0.30
2023-01-06T05:47:34.827Z,0.90
2023-01-06T05:50:36.557Z,0.50
2023-01-06T05:53:40.861Z,0.50
2023-01-06T05:56:42.554Z,0.50
2023-01-06T05:59:44.304Z,0.60
2023-01-06T06:02:45.939Z,0.40
2023-01-06T06:05:47.493Z,0.40
2023-01-06T06:08:49.799Z,0.20
2023-01-06T06:11:54.356Z,0.30
2023-01-06T06:14:56.160Z,0.50
2023-01-06T06:17:57.741Z,0.45
2023-01-06T06:21:05.374Z,0.40
2023-01-06T06:24:07.279Z,0.30
2023-01-06T06:27:08.880Z,0.30
2023-01-06T06:30:10.866Z,0.30
2023-01-06T06:33:12.419Z,0.40
2023-01-06T06:36:16.920Z,0.40
2023-01-06T06:39:18.669Z,0.40
2023-01-06T06:42:20.241Z,0.40
2023-01-06T06:45:22.437Z,0.30
2023-01-06T06:48:24.168Z,0.35
2023-01-06T06:51:25.850Z,0.20
2023-01-06T06:54:27.551Z,0.30
2023-01-06T06:57:29.138Z,0.30
2023-01-06T07:00:30.700Z,0.30
2023-01-06T07:03:32.386Z,0.32
2023-01-06T07:06:35.021Z,0.30
2023-01-06T07:09:36.635Z,0.20
2023-01-06T07:12:38.178Z,0.30
2023-01-06T07:15:40.030Z,0.20
2023-01-06T07:18:41.727Z,0.30
2023-01-06T07:21:43.340Z,0.20
2023-01-06T07:24:45.011Z,0.50
2023-01-06T07:27:46.655Z,0.35
2023-01-06T07:30:48.583Z,0.25
2023-01-06T07:33:50.334Z,0.30
2023-01-06T07:36:52.065Z,0.30
2023-01-06T07:39:53.916Z,0.30
2023-01-06T07:42:55.573Z,0.20
2023-01-06T07:45:57.568Z,0.30
2023-01-06T07:48:59.191Z,0.20
2023-01-06T07:52:00.810Z,0.20
2023-01-06T07:55:02.937Z,0.20
2023-01-06T07:58:10.005Z,0.10
2023-01-06T08:01:11.810Z,0.20
2023-01-06T08:04:13.724Z,0.20
2023-01-06T08:07:16.439Z,0.30
2023-01-06T08:10:18.051Z,0.20
2023-01-06T08:13:20.566Z,0.30
2023-01-06T08:16:22.415Z,0.20
2023-01-06T08:19:23.987Z,0.22
2023-01-06T08:22:25.567Z,0.20
2023-01-06T08:25:27.330Z,0.20
2023-01-06T08:28:29.220Z,0.20
2023-01-06T08:31:31.100Z,0.20
2023-01-06T08:34:32.903Z,0.20
2023-01-06T08:37:34.523Z,0.30
2023-01-06T08:40:36.057Z,0.20
2023-01-06T08:43:39.390Z,0.20
2023-01-06T08:46:40.994Z,0.20
2023-01-06T08:49:42.583Z,0.20
2023-01-06T08:52:44.384Z,0.20
2023-01-06T08:55:46.225Z,0.20
2023-01-06T08:58:59.285Z,0.20
2023-01-06T09:02:01.532Z,0.20
2023-01-06T09:05:03.709Z,0.20
2023-01-06T09:08:05.694Z,0.15
2023-01-06T09:11:09.198Z,0.20
2023-01-06T09:14:14.349Z,0.20
2023-01-06T09:17:15.885Z,0.22
2023-01-06T09:20:17.595Z,0.17
2023-01-06T09:23:21.039Z,0.20
2023-01-06T09:26:22.686Z,0.25
2023-01-06T09:29:24.463Z,0.20
2023-01-06T09:32:26.129Z,0.20
2023-01-06T09:35:27.739Z,0.20
2023-01-06T09:38:29.968Z,0.20
2023-01-06T09:41:59.779Z,0.20
2023-01-06T09:45:04.965Z,0.30
2023-01-06T09:48:14.990Z,0.20
2023-01-06T09:51:23.541Z,0.20
2023-01-06T09:54:31.297Z,0.20
2023-01-06T09:57:38.377Z,0.20
2023-01-06T10:00:45.199Z,0.20
2023-01-06T10:03:48.235Z,0.20
2023-01-06T10:06:59.369Z,0.20
2023-01-06T10:10:11.663Z,0.20
2023-01-06T10:14:07.400Z,0.20
2023-01-06T10:17:33.730Z,0.20
2023-01-06T10:20:49.346Z,0.20
2023-01-06T10:24:00.193Z,0.20
2023-01-06T10:27:26.402Z,0.13
2023-01-06T10:30:40.280Z,0.10
2023-01-06T10:33:48.887Z,0.20
2023-01-06T10:37:02.833Z,0.20
2023-01-06T10:40:15.475Z,0.20
2023-01-06T10:43:22.524Z,0.20
2023-01-06T10:46:33.048Z,0.20
2023-01-06T10:49:34.654Z,0.20
2023-01-06T10:52:37.074Z,0.20
2023-01-06T10:55:46.091Z,0.20
2023-01-06T10:58:54.028Z,0.20
2023-01-06T11:01:59.965Z,0.20
2023-01-06T11:05:02.765Z,0.17
2023-01-06T11:08:12.965Z,0.20
2023-01-06T11:11:27.782Z,0.20
2023-01-06T11:14:32.696Z,0.20
2023-01-06T11:17:34.669Z,0.13
2023-01-06T11:20:36.513Z,0.20
2023-01-06T11:23:41.266Z,0.10
2023-01-06T11:27:15.173Z,0.20
2023-01-06T11:30:27.862Z,0.20
2023-01-06T11:33:33.315Z,0.10
2023-01-06T11:36:34.935Z,0.20
2023-01-06T11:39:37.597Z,0.22
2023-01-06T11:45:54.869Z,0.20
2023-01-06T11:49:04.397Z,0.20
2023-01-06T11:52:18.961Z,0.20
2023-01-06T11:55:22.098Z,0.10
2023-01-06T11:58:36.148Z,0.20
2023-01-06T12:01:42.324Z,0.20
2023-01-06T12:04:50.432Z,0.20
2023-01-06T12:07:54.447Z,0.20
2023-01-06T12:11:01.054Z,0.17
2023-01-06T12:14:16.316Z,0.20
2023-01-06T12:17:30.531Z,0.20
2023-01-06T12:20:41.548Z,0.20
2023-01-06T12:23:45.918Z,0.20
2023-01-06T12:26:49.201Z,0.22
2023-01-06T12:29:53.037Z,0.20
2023-01-06T12:33:01.579Z,0.20
2023-01-06T12:36:12.142Z,0.20
2023-01-06T12:39:23.028Z,0.20
2023-01-06T12:42:43.543Z,0.20
2023-01-06T12:46:09.821Z,0.20
2023-01-06T12:49:23.324Z,0.20
2023-01-06T12:52:47.699Z,0.20
2023-01-06T12:55:58.178Z,0.10
2023-01-06T12:59:18.406Z,0.20
2023-01-06T13:02:28.791Z,0.10
2023-01-06T13:06:29.047Z,0.20
2023-01-06T13:09:58.020Z,0.20
2023-01-06T13:13:26.083Z,0.17
2023-01-06T13:17:03.524Z,0.17
2023-01-06T13:20:12.307Z,0.20
2023-01-06T13:23:38.753Z,0.20
2023-01-06T13:26:48.726Z,0.20
2023-01-06T13:30:10.791Z,0.20
2023-01-06T13:33:18.175Z,0.17
2023-01-06T13:36:25.490Z,0.20
2023-01-06T13:39:34.223Z,0.30
2023-01-06T13:42:58.584Z,0.38
2023-01-06T13:46:05.431Z,0.28
2023-01-06T13:49:07.848Z,0.10
2023-01-06T13:52:20.248Z,0.30
2023-01-06T13:55:31.002Z,0.20
2023-01-06T13:58:32.591Z,0.20
2023-01-06T14:01:34.511Z,0.20
2023-01-06T14:04:36.640Z,0.30
2023-01-06T14:07:49.101Z,0.20
2023-01-06T14:10:58.669Z,0.20
2023-01-06T14:14:03.902Z,0.20
2023-01-06T14:17:05.707Z,0.20
2023-01-06T14:20:37.501Z,0.20
2023-01-06T14:24:09.186Z,0.20
2023-01-06T14:27:12.711Z,0.20
2023-01-06T14:30:22.078Z,0.20
2023-01-06T14:33:38.032Z,0.10
2023-01-06T14:36:40.524Z,0.20
2023-01-06T14:39:48.349Z,0.20
2023-01-06T14:42:50.894Z,0.10
2023-01-06T14:45:54.427Z,0.17
2023-01-06T14:49:04.226Z,0.20
2023-01-06T14:52:12.647Z,0.20
2023-01-06T14:55:18.602Z,0.20
2023-01-06T14:58:34.429Z,0.20
2023-01-06T15:01:38.503Z,0.20
2023-01-06T15:04:43.010Z,0.22
2023-01-06T15:07:58.258Z,0.20
2023-01-06T15:11:13.058Z,0.20
2023-01-06T15:14:30.109Z,0.20
2023-01-06T15:17:31.899Z,0.20
2023-01-06T15:20:39.913Z,0.10
2023-01-06T15:23:50.654Z,0.20
2023-01-06T15:26:54.760Z,0.30
2023-01-06T15:29:57.821Z,0.20
2023-01-06T15:32:59.962Z,0.28
2023-01-06T15:36:03.387Z,0.20
2023-01-06T15:39:07.101Z,0.20
2023-01-06T15:42:12.049Z,0.20
2023-01-06T15:45:30.618Z,0.20
2023-01-06T15:48:35.029Z,0.28
2023-01-06T15:51:36.566Z,0.20
2023-01-06T15:54:38.532Z,0.20
2023-01-06T15:57:40.407Z,0.13
2023-01-06T16:00:50.131Z,0.20
2023-01-06T16:03:51.670Z,0.20
2023-01-06T16:06:53.276Z,0.20
2023-01-06T16:09:54.818Z,0.20
2023-01-06T16:13:24.517Z,0.20
2023-01-06T16:16:33.664Z,0.20
2023-01-06T16:19:39.968Z,0.20
2023-01-06T16:22:47.336Z,0.20
2023-01-06T16:25:49.081Z,0.20
2023-01-06T16:28:56.602Z,0.20
2023-01-06T16:32:01.055Z,0.20
2023-01-06T16:35:10.952Z,0.10
2023-01-06T16:38:12.512Z,0.17
2023-01-06T16:41:19.155Z,0.20
2023-01-06T16:44:20.661Z,0.17
2023-01-06T16:47:22.231Z,0.20
2023-01-06T16:50:38.455Z,0.10
2023-01-06T16:53:40.128Z,0.10
2023-01-06T16:56:41.637Z,0.20
2023-01-06T16:59:43.326Z,0.10
2023-01-06T17:02:45.657Z,0.10
2023-01-06T17:05:47.456Z,0.10
2023-01-06T17:08:50.328Z,0.10
2023-01-06T17:11:52.954Z,0.20
2023-01-06T17:14:54.507Z,0.10
2023-01-06T17:17:56.052Z,0.10
2023-01-06T17:21:11.425Z,0.10
2023-01-06T17:24:12.994Z,0.10
2023-01-06T17:27:29.106Z,0.10
2023-01-06T17:30:30.807Z,0.20
2023-01-06T17:33:32.373Z,0.15
2023-01-06T17:36:41.874Z,0.10
2023-01-06T17:39:45.477Z,0.10
2023-01-06T17:42:54.783Z,0.10
2023-01-06T17:45:56.823Z,0.20
2023-01-06T17:49:26.070Z,0.10
2023-01-06T17:52:39.851Z,0.20
2023-01-06T17:55:48.856Z,0.20
2023-01-06T17:58:50.365Z,0.10
2023-01-06T18:01:52.906Z,0.20
2023-01-06T18:04:55.056Z,0.20
2023-01-06T18:08:05.755Z,0.17
2023-01-06T18:11:19.863Z,0.20
2023-01-06T18:14:28.109Z,0.20
2023-01-06T18:17:32.171Z,0.13
2023-01-06T18:20:33.713Z,0.10
2023-01-06T18:23:35.399Z,0.13
2023-01-06T18:26:41.436Z,0.20
2023-01-06T18:29:44.684Z,0.20
2023-01-06T18:32:46.387Z,0.10
2023-01-06T18:35:52.130Z,0.10
2023-01-06T18:38:55.246Z,0.20
2023-01-06T18:42:18.190Z,0.20
2023-01-06T18:45:29.014Z,0.20
2023-01-06T18:48:33.451Z,0.20
2023-01-06T18:51:35.190Z,0.10
2023-01-06T18:54:36.804Z,0.15
2023-01-06T18:57:38.458Z,0.10
2023-01-06T19:00:43.023Z,0.20
2023-01-06T19:04:14.720Z,0.20
2023-01-06T19:07:26.714Z,0.10
2023-01-06T19:10:29.079Z,0.20
2023-01-06T19:13:30.645Z,0.20
2023-01-06T19:16:48.837Z,0.13
2023-01-06T19:19:56.123Z,0.10
2023-01-06T19:22:57.809Z,0.10
2023-01-06T19:26:05.341Z,0.20
2023-01-06T19:29:12.732Z,0.17
2023-01-06T19:32:15.407Z,0.20
2023-01-06T19:35:27.495Z,0.10
2023-01-06T19:38:34.816Z,0.20
2023-01-06T19:41:36.462Z,0.10
2023-01-06T19:44:38.716Z,0.20
2023-01-06T19:47:42.253Z,0.17
2023-01-06T19:50:44.025Z,0.10
2023-01-06T19:54:06.889Z,0.10
2023-01-06T19:57:34.837Z,0.13
2023-01-06T20:00:46.870Z,0.13
2023-01-06T20:03:50.574Z,0.20
2023-01-06T20:06:52.807Z,0.20
2023-01-06T20:09:56.150Z,0.10
2023-01-06T20:12:58.074Z,0.20
2023-01-06T20:15:59.618Z,0.20
2023-01-06T20:19:01.443Z,0.20
2023-01-06T20:22:03.436Z,0.20
2023-01-06T20:25:05.335Z,0.20
2023-01-06T20:28:07.961Z,0.20
2023-01-06T20:31:10.013Z,0.20
2023-01-06T20:34:11.642Z,0.20
2023-01-06T20:37:13.740Z,0.20
2023-01-06T20:40:15.538Z,0.17
2023-01-06T20:43:17.827Z,0.20
2023-01-06T20:46:19.520Z,0.10
2023-01-06T20:49:21.116Z,0.20
2023-01-06T20:52:22.783Z,0.20
2023-01-06T20:55:24.521Z,0.20
2023-01-06T20:58:26.111Z,0.20
2023-01-06T21:01:27.807Z,0.17
2023-01-06T21:04:29.518Z,0.20
2023-01-06T21:07:31.051Z,0.20
2023-01-06T21:10:32.619Z,0.10
2023-01-06T21:13:34.163Z,0.10
2023-01-06T21:16:35.782Z,0.13
2023-01-06T21:19:37.364Z,0.10
2023-01-06T21:22:39.054Z,0.20
2023-01-06T21:25:40.631Z,0.20
2023-01-06T21:28:42.183Z,0.10
2023-01-06T21:31:43.935Z,0.20
2023-01-06T21:34:45.503Z,0.20
2023-01-06T21:37:47.032Z,0.20
2023-01-06T21:40:48.678Z,0.20
2023-01-06T21:43:50.293Z,0.20
2023-01-06T21:46:51.879Z,0.20
2023-01-06T21:49:53.446Z,0.10
2023-01-06T21:52:55.748Z,0.20
2023-01-06T21:55:57.642Z,0.20
2023-01-06T21:58:59.634Z,0.20
2023-01-06T22:02:01.247Z,0.10
2023-01-06T22:05:02.898Z,0.20
2023-01-06T22:08:05.354Z,0.20
2023-01-06T22:11:07.348Z,0.20
2023-01-06T22:14:10.524Z,0.20
2023-01-06T22:17:13.058Z,0.20
2023-01-06T22:20:14.963Z,0.20
2023-01-06T22:23:20.459Z,0.10
2023-01-06T22:26:22.045Z,0.20
2023-01-06T22:29:23.883Z,0.25
2023-01-06T22:32:27.655Z,0.20
2023-01-06T22:35:29.301Z,0.20
2023-01-06T22:38:32.241Z,0.20
2023-01-06T22:41:34.530Z,0.13
2023-01-06T22:44:36.046Z,0.20
2023-01-06T22:47:37.654Z,0.20
2023-01-06T22:50:39.182Z,0.20
2023-01-06T22:53:41.944Z,0.20
2023-01-06T22:56:43.549Z,0.30
2023-01-06T22:59:45.118Z,0.20
2023-01-06T23:02:46.772Z,0.20
2023-01-06T23:05:55.570Z,0.20
2023-01-06T23:09:00.596Z,0.20
2023-01-06T23:12:02.635Z,0.20
2023-01-06T23:15:04.955Z,0.20
2023-01-06T23:18:06.542Z,0.20
2023-01-06T23:21:10.821Z,0.30
2023-01-06T23:24:12.957Z,0.20
2023-01-06T23:27:14.602Z,0.30
2023-01-06T23:30:16.228Z,0.20
2023-01-06T23:33:17.854Z,0.30
2023-01-06T23:36:20.476Z,0.30
2023-01-06T23:39:22.069Z,0.20
2023-01-06T23:42:23.629Z,0.25
2023-01-06T23:45:25.183Z,0.30
2023-01-06T23:48:29.087Z,0.35
2023-01-06T23:51:32.203Z,0.28
2023-01-06T23:54:33.754Z,0.40
2023-01-06T23:57:35.305Z,0.30
